Time;durP1;ratioP1;P1;durP2;ratioP2;P2;SDS_P1;SDS_P2;PMS_P1;PMS_P2;Temp;Humidity;BMP_temperature;BMP_pressure;BME280_temperature;BME280_humidity;BME280_pressure;Samples;Min_cycle;Max_cycle;Signal;HPM_P1;HPM_P2
2023/09/03 00:00:51;;;;;;;9.50;2.30;;;15.60;99.90;;;;;;4983504;28;20187;-62
2023/09/03 00:03:17;;;;;;;5.87;1.60;;;15.60;99.90;;;;;;4983591;28;21251;-62
2023/09/03 00:05:50;;;;;;;4.70;1.83;;;15.60;99.90;;;;;;4983231;28;20435;-62
2023/09/03 00:08:16;;;;;;;3.27;1.70;;;15.60;99.90;;;;;;4983590;28;20283;-62
2023/09/03 00:10:42;;;;;;;4.00;1.80;;;15.50;99.90;;;;;;4983209;28;20488;-62
2023/09/03 00:13:08;;;;;;;13.20;2.40;;;15.60;99.90;;;;;;4983910;28;20195;-62
2023/09/03 00:15:36;;;;;;;3.80;1.80;;;15.60;99.90;;;;;;4983365;28;20278;-62
2023/09/03 00:18:02;;;;;;;3.80;2.27;;;15.60;99.90;;;;;;4983722;28;20191;-62
2023/09/03 00:20:28;;;;;;;5.20;1.60;;;15.50;99.90;;;;;;4983268;28;20490;-62
2023/09/03 00:22:53;;;;;;;3.07;1.73;;;15.50;99.90;;;;;;4983776;28;20267;-62
2023/09/03 00:25:19;;;;;;;3.37;1.87;;;15.50;99.90;;;;;;4982997;28;20884;-62
2023/09/03 00:27:44;;;;;;;3.83;2.27;;;15.50;99.90;;;;;;4983540;28;20226;-62
2023/09/03 00:30:11;;;;;;;4.23;2.70;;;15.50;99.90;;;;;;4983609;28;20239;-62
2023/09/03 00:32:36;;;;;;;4.50;2.37;;;15.50;99.90;;;;;;4983034;28;20195;-62
2023/09/03 00:35:02;;;;;;;4.03;1.77;;;15.50;99.90;;;;;;4983016;28;20447;-62
2023/09/03 00:37:27;;;;;;;5.70;2.80;;;15.40;99.90;;;;;;4983238;28;20196;-62
2023/09/03 00:39:53;;;;;;;4.60;1.77;;;15.40;99.90;;;;;;4983485;28;20203;-62
2023/09/03 00:42:18;;;;;;;7.93;1.60;;;15.40;99.90;;;;;;4983440;28;20866;-62
2023/09/03 00:44:44;;;;;;;3.13;1.90;;;15.40;99.90;;;;;;4983171;28;20195;-62
2023/09/03 00:47:10;;;;;;;3.47;1.40;;;15.30;99.90;;;;;;4982929;28;20206;-60
2023/09/03 00:49:41;;;;;;;6.57;1.97;;;15.30;99.90;;;;;;4982935;28;20203;-61
2023/09/03 00:52:07;;;;;;;5.20;3.00;;;15.30;99.90;;;;;;5000310;28;20504;-61
2023/09/03 00:54:32;;;;;;;3.00;1.80;;;15.30;99.90;;;;;;4981938;28;20489;-61
2023/09/03 00:56:59;;;;;;;5.97;2.63;;;15.30;99.90;;;;;;4983277;28;20199;-60
2023/09/03 00:59:29;;;;;;;8.33;2.53;;;15.30;99.90;;;;;;4983117;28;20878;-60
2023/09/03 01:01:55;;;;;;;2.60;1.37;;;15.30;99.90;;;;;;4984943;28;20438;-60
2023/09/03 01:04:21;;;;;;;2.53;1.60;;;15.30;99.90;;;;;;4986610;28;20434;-60
2023/09/03 01:06:49;;;;;;;3.40;2.00;;;15.20;99.90;;;;;;4993831;28;20183;-61
2023/09/03 01:09:16;;;;;;;3.37;2.00;;;15.20;99.90;;;;;;5000305;28;20309;-60
2023/09/03 01:11:57;;;;;;;5.07;2.43;;;15.20;99.90;;;;;;5007419;28;20508;-60
2023/09/03 01:14:41;;;;;;;2.80;1.30;;;15.20;99.90;;;;;;5014451;28;21190;-61
2023/09/03 01:17:14;;;;;;;7.60;1.50;;;15.20;99.90;;;;;;5013767;28;20419;-61
2023/09/03 01:19:46;;;;;;;6.43;1.60;;;15.20;99.90;;;;;;5003566;28;20473;-60
2023/09/03 01:22:27;;;;;;;5.43;2.60;;;15.20;99.90;;;;;;4997968;28;20438;-60
2023/09/03 01:25:11;;;;;;;3.87;1.77;;;15.20;99.90;;;;;;4990186;28;20433;-60
2023/09/03 01:27:47;;;;;;;21.63;2.27;;;15.20;99.90;;;;;;4991353;28;20733;-61
2023/09/03 01:30:15;;;;;;;4.20;2.10;;;15.20;99.90;;;;;;4990603;28;20469;-60
2023/09/03 01:32:42;;;;;;;2.30;1.60;;;15.20;99.90;;;;;;4989692;28;20517;-61
2023/09/03 01:35:09;;;;;;;4.97;2.00;;;15.10;99.90;;;;;;4990476;28;20880;-61
2023/09/03 01:37:35;;;;;;;5.30;2.27;;;15.10;99.90;;;;;;4984737;28;20513;-61
2023/09/03 01:40:01;;;;;;;3.17;2.27;;;15.20;99.90;;;;;;4985006;28;20439;-61
2023/09/03 01:42:26;;;;;;;4.20;2.53;;;15.20;99.90;;;;;;4985048;28;20429;-61
2023/09/03 01:44:52;;;;;;;3.20;1.87;;;15.20;99.90;;;;;;4983914;28;20226;-61
2023/09/03 01:47:23;;;;;;;4.40;1.83;;;15.10;99.90;;;;;;4985173;28;20195;-61
2023/09/03 01:50:29;;;;;;;2.93;1.70;;;15.10;99.90;;;;;;4986558;28;20200;-61
2023/09/03 01:53:07;;;;;;;3.90;1.87;;;15.10;99.90;;;;;;4988523;28;20907;-61
2023/09/03 01:55:35;;;;;;;4.07;1.70;;;15.10;99.90;;;;;;4988954;28;20423;-61
2023/09/03 01:58:04;;;;;;;8.23;2.20;;;15.10;99.90;;;;;;4990154;28;20469;-61
2023/09/03 02:00:29;;;;;;;3.63;2.00;;;15.10;99.90;;;;;;4989356;28;20473;-61
2023/09/03 02:02:56;;;;;;;4.03;1.50;;;15.10;99.90;;;;;;4989050;28;20427;-61
2023/09/03 02:05:22;;;;;;;3.80;2.10;;;15.10;99.90;;;;;;4990686;28;20578;-61
2023/09/03 02:07:47;;;;;;;3.20;1.33;;;15.10;99.90;;;;;;5000532;28;20469;-61
2023/09/03 02:10:13;;;;;;;4.50;1.87;;;15.10;99.90;;;;;;4993809;28;20254;-61
2023/09/03 02:12:39;;;;;;;2.57;1.50;;;15.10;99.90;;;;;;4999707;28;20552;-61
2023/09/03 02:15:05;;;;;;;3.50;1.30;;;15.00;99.90;;;;;;5013047;28;20710;-61
2023/09/03 02:17:30;;;;;;;2.83;1.90;;;15.00;99.90;;;;;;5006681;28;20206;-61
2023/09/03 02:19:57;;;;;;;2.77;1.67;;;15.00;99.90;;;;;;5006980;28;20426;-61
2023/09/03 02:22:22;;;;;;;2.83;1.83;;;15.00;99.90;;;;;;5012392;28;20187;-61
2023/09/03 02:24:50;;;;;;;4.43;2.27;;;15.00;99.90;;;;;;5006513;28;20924;-61
2023/09/03 02:27:15;;;;;;;3.10;1.73;;;15.00;99.90;;;;;;4988089;28;20186;-61
2023/09/03 02:29:41;;;;;;;3.00;1.27;;;15.00;99.90;;;;;;5012642;28;21000;-61
2023/09/03 02:32:07;;;;;;;5.27;2.10;;;15.00;99.90;;;;;;4996103;28;20669;-61
2023/09/03 02:34:34;;;;;;;4.20;2.23;;;15.00;99.90;;;;;;4998411;28;20431;-61
2023/09/03 02:37:00;;;;;;;3.47;1.90;;;14.90;99.90;;;;;;5001321;28;20245;-61
2023/09/03 02:39:26;;;;;;;3.57;2.00;;;14.90;99.90;;;;;;5012599;28;20924;-61
2023/09/03 02:41:52;;;;;;;13.63;2.20;;;14.90;99.90;;;;;;5000143;28;20211;-61
2023/09/03 02:44:17;;;;;;;3.17;1.30;;;14.90;99.90;;;;;;5012447;28;20187;-61
2023/09/03 02:46:43;;;;;;;2.93;1.63;;;14.90;99.90;;;;;;5012624;28;20183;-61
2023/09/03 02:49:10;;;;;;;2.33;1.40;;;14.90;99.90;;;;;;5012678;28;20242;-61
2023/09/03 02:51:37;;;;;;;3.60;1.77;;;14.80;99.90;;;;;;5012951;28;20838;-61
2023/09/03 02:54:02;;;;;;;4.20;2.30;;;14.80;99.90;;;;;;4998972;28;20469;-61
2023/09/03 02:56:29;;;;;;;5.20;2.27;;;14.80;99.90;;;;;;5002063;28;20513;-61
2023/09/03 02:58:55;;;;;;;3.67;1.97;;;14.80;99.90;;;;;;5012519;28;20266;-61
2023/09/03 03:01:20;;;;;;;3.47;1.70;;;14.80;99.90;;;;;;4999857;28;21029;-61
2023/09/03 03:03:47;;;;;;;9.80;2.50;;;14.70;99.90;;;;;;5008556;28;20274;-61
2023/09/03 03:06:13;;;;;;;4.30;2.30;;;14.70;99.90;;;;;;5006151;28;20207;-61
2023/09/03 03:08:39;;;;;;;3.63;1.83;;;14.70;99.90;;;;;;4993055;28;20447;-61
2023/09/03 03:11:09;;;;;;;4.47;1.67;;;14.60;99.90;;;;;;4999521;28;20425;-61
2023/09/03 03:13:35;;;;;;;2.60;1.63;;;14.60;99.90;;;;;;5012295;28;20179;-61
2023/09/03 03:16:08;;;;;;;2.83;1.57;;;14.60;99.90;;;;;;5011627;28;20421;-61
2023/09/03 03:18:35;;;;;;;3.43;1.70;;;14.60;99.90;;;;;;4999234;28;20775;-61
2023/09/03 03:21:09;;;;;;;5.97;2.20;;;14.60;99.90;;;;;;5012191;28;20433;-61
2023/09/03 03:23:35;;;;;;;3.77;1.63;;;14.50;99.90;;;;;;5003651;28;20809;-61
2023/09/03 03:26:02;;;;;;;2.87;1.73;;;14.50;99.90;;;;;;5011499;28;20800;-61
2023/09/03 03:28:30;;;;;;;2.90;1.63;;;14.60;99.90;;;;;;5009301;28;20462;-61
2023/09/03 03:30:56;;;;;;;2.70;1.57;;;14.50;99.90;;;;;;4992118;28;20442;-61
2023/09/03 03:33:22;;;;;;;6.70;2.10;;;14.50;99.90;;;;;;4997263;28;20470;-61
2023/09/03 03:35:48;;;;;;;3.93;1.93;;;14.60;99.90;;;;;;4992814;28;20454;-61
2023/09/03 03:38:14;;;;;;;3.77;1.50;;;14.60;99.90;;;;;;4992311;28;20186;-61
2023/09/03 03:40:39;;;;;;;3.93;2.20;;;14.50;99.90;;;;;;5001115;28;20183;-61
2023/09/03 03:43:05;;;;;;;2.20;1.20;;;14.50;99.90;;;;;;5009279;28;20655;-61
2023/09/03 03:45:33;;;;;;;3.77;2.20;;;14.50;99.90;;;;;;5001595;28;20270;-62
2023/09/03 03:47:58;;;;;;;3.60;2.13;;;14.40;99.90;;;;;;5011433;28;20218;-62
2023/09/03 03:50:24;;;;;;;5.70;1.67;;;14.30;99.90;;;;;;5012169;28;20574;-62
2023/09/03 03:52:49;;;;;;;4.33;1.67;;;14.30;99.90;;;;;;4996117;28;20199;-62
2023/09/03 03:55:15;;;;;;;2.63;1.50;;;14.30;99.90;;;;;;4994448;28;20198;-62
2023/09/03 03:57:41;;;;;;;3.10;1.40;;;14.30;99.90;;;;;;5008849;28;20183;-62
2023/09/03 04:00:08;;;;;;;2.20;1.53;;;14.30;99.90;;;;;;5012069;28;20632;-61
2023/09/03 04:02:33;;;;;;;4.23;1.83;;;14.30;99.90;;;;;;5007317;28;20432;-62
2023/09/03 04:04:59;;;;;;;5.77;1.97;;;14.30;99.90;;;;;;5008700;28;20628;-62
2023/09/03 04:07:24;;;;;;;2.23;1.33;;;14.30;99.90;;;;;;4991566;28;20633;-62
2023/09/03 04:09:50;;;;;;;2.60;1.70;;;14.30;99.90;;;;;;4997733;28;20212;-62
2023/09/03 04:12:15;;;;;;;2.87;1.43;;;14.30;99.90;;;;;;5008048;28;20606;-62
2023/09/03 04:14:41;;;;;;;5.70;1.90;;;14.30;99.90;;;;;;5011213;28;20179;-62
2023/09/03 04:17:07;;;;;;;1.87;1.13;;;14.30;99.90;;;;;;5008047;28;20617;-61
2023/09/03 04:19:33;;;;;;;3.93;2.50;;;14.20;99.90;;;;;;5001322;28;20191;-62
2023/09/03 04:21:59;;;;;;;3.87;1.70;;;14.20;99.90;;;;;;5008379;28;20198;-62
2023/09/03 04:24:25;;;;;;;3.10;1.70;;;14.20;99.90;;;;;;4991296;28;20431;-62
2023/09/03 04:26:50;;;;;;;3.30;1.60;;;14.30;99.90;;;;;;5007166;28;20418;-62
2023/09/03 04:29:16;;;;;;;4.80;2.00;;;14.20;99.90;;;;;;5011380;28;20268;-62
2023/09/03 04:31:42;;;;;;;4.27;2.03;;;14.20;99.90;;;;;;5010135;28;20183;-62
2023/09/03 04:34:08;;;;;;;3.53;1.50;;;14.20;99.90;;;;;;4995624;28;20214;-62
2023/09/03 04:36:34;;;;;;;3.37;1.50;;;14.20;99.90;;;;;;4993586;28;20191;-61
2023/09/03 04:39:00;;;;;;;3.40;1.67;;;14.20;99.90;;;;;;5011084;28;20430;-62
2023/09/03 04:41:25;;;;;;;2.80;1.77;;;14.20;99.90;;;;;;5011130;28;20183;-61
2023/09/03 04:44:07;;;;;;;2.80;1.53;;;14.10;99.90;;;;;;5010990;28;20187;-61
2023/09/03 04:46:32;;;;;;;3.90;2.10;;;14.10;99.90;;;;;;5006032;28;20217;-61
2023/09/03 04:48:58;;;;;;;4.67;2.10;;;14.10;99.90;;;;;;5001988;28;20465;-62
2023/09/03 04:51:23;;;;;;;9.63;1.50;;;14.20;99.90;;;;;;5010821;28;20206;-62
2023/09/03 04:53:49;;;;;;;3.60;1.77;;;14.20;99.90;;;;;;4997999;28;20188;-62
2023/09/03 04:56:15;;;;;;;3.50;1.50;;;14.20;99.90;;;;;;4998990;28;20217;-62
2023/09/03 04:58:40;;;;;;;3.83;2.17;;;14.20;99.90;;;;;;5011012;28;20214;-62
2023/09/03 05:01:18;;;;;;;2.17;1.10;;;14.30;99.90;;;;;;5005457;28;20188;-61
2023/09/03 05:03:44;;;;;;;2.30;1.50;;;14.20;99.90;;;;;;5003944;28;20507;-61
2023/09/03 05:06:13;;;;;;;19.23;1.50;;;14.20;99.90;;;;;;4998281;28;20430;-62
2023/09/03 05:08:39;;;;;;;3.57;2.07;;;14.20;99.90;;;;;;4990842;28;20438;-62
2023/09/03 05:11:12;;;;;;;7.47;1.60;;;14.30;99.90;;;;;;5003450;28;20907;-62
2023/09/03 05:13:41;;;;;;;3.00;1.30;;;14.30;99.90;;;;;;5008729;28;20414;-62
2023/09/03 05:16:07;;;;;;;13.63;1.87;;;14.30;99.90;;;;;;4999455;28;20426;-62
2023/09/03 05:18:33;;;;;;;2.30;1.57;;;14.30;99.90;;;;;;4991598;28;20431;-61
2023/09/03 05:21:05;;;;;;;3.10;1.50;;;14.40;99.90;;;;;;4991486;28;20419;-62
2023/09/03 05:23:31;;;;;;;2.13;1.10;;;14.40;99.90;;;;;;4995126;28;20869;-61
2023/09/03 05:25:57;;;;;;;2.87;1.60;;;14.40;99.90;;;;;;4999804;28;20414;-62
2023/09/03 05:28:22;;;;;;;2.00;1.20;;;14.40;99.90;;;;;;5010708;28;20262;-62
2023/09/03 05:30:51;;;;;;;2.10;1.20;;;14.50;99.90;;;;;;5010252;28;20642;-62
2023/09/03 05:33:16;;;;;;;3.47;1.50;;;14.50;99.90;;;;;;5010029;28;20185;-62
2023/09/03 05:35:42;;;;;;;3.27;1.40;;;14.60;99.90;;;;;;4993081;28;20507;-62
2023/09/03 05:38:07;;;;;;;2.50;1.50;;;14.60;99.90;;;;;;5001253;28;20210;-62
2023/09/03 05:40:33;;;;;;;3.50;1.37;;;14.60;99.90;;;;;;4982738;28;20192;-62
2023/09/03 05:42:59;;;;;;;2.97;2.03;;;14.70;99.90;;;;;;4983012;28;20643;-62
2023/09/03 05:45:24;;;;;;;4.00;1.17;;;14.80;99.90;;;;;;4982372;28;20637;-62
2023/09/03 05:47:50;;;;;;;3.20;2.17;;;14.90;99.90;;;;;;4967242;28;20199;-62
2023/09/03 05:50:16;;;;;;;3.47;1.80;;;15.00;99.90;;;;;;4986285;28;20289;-62
2023/09/03 05:52:42;;;;;;;5.00;1.80;;;15.00;99.90;;;;;;4986317;28;20188;-62
2023/09/03 05:55:08;;;;;;;3.13;2.10;;;15.10;99.90;;;;;;4989727;28;20203;-62
2023/09/03 05:57:36;;;;;;;2.60;1.70;;;15.10;99.90;;;;;;4994018;28;20425;-62
2023/09/03 06:00:02;;;;;;;3.97;2.00;;;15.20;99.90;;;;;;5004416;28;20901;-62
2023/09/03 06:02:27;;;;;;;8.53;1.30;;;15.30;99.90;;;;;;5013209;28;20449;-62
2023/09/03 06:04:53;;;;;;;8.73;1.90;;;15.30;99.90;;;;;;5013419;28;20462;-62
2023/09/03 06:07:19;;;;;;;2.80;1.50;;;15.40;99.90;;;;;;5004445;28;20196;-62
2023/09/03 06:09:47;;;;;;;2.60;1.60;;;15.40;99.90;;;;;;4999960;28;20222;-62
2023/09/03 06:12:13;;;;;;;3.47;1.87;;;15.50;99.90;;;;;;5007134;28;20194;-62
2023/09/03 06:14:39;;;;;;;4.87;1.80;;;15.60;99.90;;;;;;5003475;28;20484;-62
2023/09/03 06:17:04;;;;;;;4.53;2.17;;;15.70;99.90;;;;;;5008545;28;20431;-62
2023/09/03 06:19:30;;;;;;;3.97;2.00;;;15.80;99.90;;;;;;4976542;28;20219;-62
2023/09/03 06:21:56;;;;;;;3.00;1.80;;;15.90;99.90;;;;;;5009419;28;20183;-62
2023/09/03 06:24:22;;;;;;;4.07;1.90;;;16.00;99.90;;;;;;5009063;28;20196;-62
2023/09/03 06:26:48;;;;;;;3.30;1.63;;;16.20;99.90;;;;;;4988316;28;20489;-62
2023/09/03 06:29:13;;;;;;;5.90;1.87;;;16.20;99.90;;;;;;4989025;28;20254;-62
2023/09/03 06:31:39;;;;;;;4.83;1.60;;;16.40;99.90;;;;;;4988285;28;20242;-62
2023/09/03 06:34:04;;;;;;;3.10;1.50;;;16.50;99.90;;;;;;4988557;28;20538;-62
2023/09/03 06:36:30;;;;;;;3.90;2.10;;;16.60;99.90;;;;;;4988818;28;20612;-62
2023/09/03 06:38:56;;;;;;;4.40;2.00;;;16.70;99.90;;;;;;4988705;28;20359;-62
2023/09/03 06:41:21;;;;;;;4.53;2.50;;;16.90;99.90;;;;;;4988341;28;20194;-62
2023/09/03 06:43:47;;;;;;;5.03;2.00;;;17.00;99.90;;;;;;4988676;28;20275;-62
2023/09/03 06:46:13;;;;;;;4.50;2.27;;;17.20;99.90;;;;;;4987527;28;20264;-62
2023/09/03 06:48:39;;;;;;;5.43;2.17;;;17.30;99.90;;;;;;4988321;28;20192;-62
2023/09/03 06:51:04;;;;;;;5.60;1.77;;;17.40;99.90;;;;;;4989804;28;20188;-62
2023/09/03 06:53:30;;;;;;;3.63;1.40;;;17.50;99.90;;;;;;4988422;28;20180;-62
2023/09/03 06:55:57;;;;;;;2.33;1.50;;;17.50;99.90;;;;;;4994841;28;20197;-62
2023/09/03 06:58:23;;;;;;;2.67;1.50;;;17.60;99.90;;;;;;5012370;28;20190;-62
2023/09/03 07:00:48;;;;;;;2.97;1.60;;;17.80;99.90;;;;;;5009646;28;20430;-64
2023/09/03 07:03:14;;;;;;;4.27;1.83;;;17.90;99.90;;;;;;5002403;28;20294;-64
2023/09/03 07:05:41;;;;;;;3.13;1.50;;;18.00;99.90;;;;;;5009090;28;20640;-62
2023/09/03 07:08:07;;;;;;;2.60;1.70;;;18.10;99.90;;;;;;4987635;28;20223;-62
2023/09/03 07:10:36;;;;;;;4.70;2.00;;;18.30;99.90;;;;;;4992127;28;20561;-62
2023/09/03 07:13:02;;;;;;;4.77;2.40;;;18.40;99.90;;;;;;4987215;28;20518;-61
2023/09/03 07:15:28;;;;;;;2.43;1.53;;;18.60;99.90;;;;;;4995168;28;20958;-62
2023/09/03 07:17:53;;;;;;;3.53;1.80;;;18.70;99.90;;;;;;4998299;28;20435;-62
2023/09/03 07:20:19;;;;;;;7.70;2.07;;;18.70;99.90;;;;;;4992775;28;20198;-61
2023/09/03 07:22:45;;;;;;;7.63;1.80;;;18.90;99.90;;;;;;5002342;28;20271;-62
2023/09/03 07:25:10;;;;;;;3.37;2.00;;;19.00;99.90;;;;;;4996829;28;20573;-62
2023/09/03 07:27:38;;;;;;;3.50;1.83;;;19.10;99.90;;;;;;5002572;28;20201;-62
2023/09/03 07:30:08;;;;;;;2.87;1.60;;;19.30;99.90;;;;;;5011755;28;20213;-61
2023/09/03 07:32:34;;;;;;;5.23;2.00;;;19.30;99.90;;;;;;5011723;28;20522;-61
2023/09/03 07:35:00;;;;;;;4.47;2.30;;;19.20;99.90;;;;;;4998354;28;20426;-62
2023/09/03 07:37:25;;;;;;;4.40;1.70;;;19.30;99.90;;;;;;5003982;28;20423;-62
2023/09/03 07:39:51;;;;;;;2.97;1.40;;;19.40;99.90;;;;;;4994461;28;20587;-62
2023/09/03 07:42:16;;;;;;;3.40;2.13;;;19.50;99.90;;;;;;4989361;28;20847;-61
2023/09/03 07:44:42;;;;;;;4.33;1.83;;;19.50;99.90;;;;;;4987016;28;20191;-61
2023/09/03 07:47:08;;;;;;;5.17;2.20;;;19.60;99.90;;;;;;4996725;28;20539;-61
2023/09/03 07:49:33;;;;;;;3.40;1.77;;;19.70;99.90;;;;;;5003780;28;20210;-61
2023/09/03 07:51:59;;;;;;;3.60;1.50;;;19.80;99.90;;;;;;4996600;28;20669;-61
2023/09/03 07:54:24;;;;;;;12.10;2.67;;;19.80;99.90;;;;;;4987700;28;20180;-62
2023/09/03 07:56:54;;;;;;;4.00;1.60;;;20.00;99.90;;;;;;4990909;28;20199;-62
2023/09/03 07:59:20;;;;;;;2.47;1.40;;;20.10;99.90;;;;;;5004645;28;20269;-62
2023/09/03 08:01:46;;;;;;;5.20;2.13;;;20.30;99.90;;;;;;4988694;28;20522;-61
2023/09/03 08:04:12;;;;;;;5.93;2.17;;;20.60;99.90;;;;;;4987043;28;20211;-62
2023/09/03 08:06:37;;;;;;;2.60;1.60;;;20.90;99.90;;;;;;4989837;28;20565;-62
2023/09/03 08:09:03;;;;;;;3.80;1.63;;;21.10;99.90;;;;;;4991449;28;20251;-62
2023/09/03 08:11:29;;;;;;;4.53;1.83;;;21.40;99.90;;;;;;4992417;28;20198;-62
2023/09/03 08:13:59;;;;;;;3.00;1.37;;;21.60;99.90;;;;;;4995561;28;20872;-62
2023/09/03 08:16:25;;;;;;;3.13;1.90;;;21.70;99.90;;;;;;4984722;28;20640;-62
2023/09/03 08:18:51;;;;;;;15.93;1.90;;;21.80;99.90;;;;;;4990271;28;20477;-62
2023/09/03 08:21:16;;;;;;;3.00;1.60;;;22.00;99.90;;;;;;4991267;28;20266;-62
2023/09/03 08:23:42;;;;;;;4.53;2.07;;;22.00;99.90;;;;;;4993061;28;20306;-62
2023/09/03 08:26:08;;;;;;;4.37;1.50;;;21.90;99.90;;;;;;5003303;28;20182;-62
2023/09/03 08:28:33;;;;;;;3.50;1.93;;;22.10;99.90;;;;;;4992382;28;20198;-62
2023/09/03 08:30:59;;;;;;;2.60;1.30;;;22.40;99.90;;;;;;4992634;28;20332;-62
2023/09/03 08:33:25;;;;;;;3.00;1.83;;;22.70;99.90;;;;;;4988115;28;22028;-62
2023/09/03 08:35:50;;;;;;;2.97;1.40;;;22.90;99.90;;;;;;4990201;28;20262;-62
2023/09/03 08:38:16;;;;;;;4.37;1.30;;;23.10;99.90;;;;;;4985770;28;20640;-62
2023/09/03 08:40:43;;;;;;;3.73;1.47;;;23.30;99.90;;;;;;4982412;28;20233;-62
2023/09/03 08:43:10;;;;;;;3.00;1.57;;;23.60;99.90;;;;;;4982695;28;20937;-62
2023/09/03 08:45:51;;;;;;;3.40;1.30;;;23.90;99.90;;;;;;4982620;28;20473;-62
2023/09/03 08:48:16;;;;;;;3.30;1.90;;;24.20;99.90;;;;;;4980852;28;20474;-62
2023/09/03 08:50:42;;;;;;;3.10;1.50;;;24.20;99.90;;;;;;4981948;28;20577;-62
2023/09/03 08:53:10;;;;;;;2.50;1.37;;;24.50;99.90;;;;;;4982850;28;20184;-62
2023/09/03 08:55:36;;;;;;;3.70;1.20;;;24.80;99.90;;;;;;4983048;28;20640;-62
2023/09/03 08:58:02;;;;;;;2.80;1.65;;;25.50;99.90;;;;;;4982656;28;20187;-62
2023/09/03 09:00:28;;;;;;;2.67;1.52;;;25.90;99.90;;;;;;4983467;28;20191;-62
2023/09/03 09:02:54;;;;;;;2.83;1.30;;;26.00;99.90;;;;;;4979575;28;20281;-62
2023/09/03 09:05:21;;;;;;;2.70;1.20;;;26.10;99.90;;;;;;4981588;28;20612;-62
2023/09/03 09:07:48;;;;;;;2.58;1.35;;;25.80;99.90;;;;;;4980192;28;20230;-62
2023/09/03 09:10:17;;;;;;;6.22;1.70;;;26.00;99.90;;;;;;4982537;28;20538;-62
2023/09/03 09:12:54;;;;;;;4.30;1.55;;;26.10;99.90;;;;;;4982550;28;20191;-64
2023/09/03 09:15:19;;;;;;;3.92;1.50;;;26.20;99.90;;;;;;4982322;28;20187;-64
2023/09/03 09:17:45;;;;;;;2.13;1.13;;;25.80;99.90;;;;;;4982412;28;20221;-64
2023/09/03 09:20:12;;;;;;;2.25;1.20;;;26.20;99.90;;;;;;4982551;28;20644;-64
2023/09/03 09:22:43;;;;;;;2.63;1.13;;;26.40;99.90;;;;;;4985148;28;20222;-64
2023/09/03 09:25:12;;;;;;;2.25;1.27;;;26.20;99.90;;;;;;4986607;28;20213;-64
2023/09/03 09:27:38;;;;;;;1.83;1.00;;;26.60;99.90;;;;;;4986369;28;20183;-64
2023/09/03 09:30:15;;;;;;;2.50;1.33;;;26.80;99.10;;;;;;4986614;28;20214;-64
2023/09/03 09:32:42;;;;;;;3.63;1.33;;;26.10;99.90;;;;;;4979367;28;20273;-64
2023/09/03 09:35:09;;;;;;;5.70;1.77;;;26.20;99.60;;;;;;4979973;28;20214;-64
2023/09/03 09:37:39;;;;;;;2.03;1.10;;;26.30;99.90;;;;;;4979758;28;20198;-64
2023/09/03 09:40:06;;;;;;;1.65;0.90;;;26.60;99.50;;;;;;4978696;28;20855;-64
2023/09/03 09:42:32;;;;;;;3.40;1.40;;;26.70;98.70;;;;;;4977186;28;21063;-64
2023/09/03 09:44:59;;;;;;;5.57;1.60;;;26.70;99.20;;;;;;4980010;28;20199;-64
2023/09/03 09:47:25;;;;;;;2.80;1.05;;;26.30;99.70;;;;;;4979493;28;20283;-64
2023/09/03 09:49:51;;;;;;;2.30;1.15;;;26.40;99.90;;;;;;4978817;28;20783;-64
2023/09/03 09:52:18;;;;;;;1.95;1.13;;;26.30;99.90;;;;;;4978958;28;20191;-64
2023/09/03 09:54:45;;;;;;;2.42;1.40;;;25.80;99.90;;;;;;4980828;28;20873;-64
2023/09/03 09:57:21;;;;;;;2.83;1.10;;;26.00;99.90;;;;;;4979671;28;20187;-64
2023/09/03 10:00:00;;;;;;;2.23;1.00;;;25.70;99.90;;;;;;4980537;28;20202;-64
2023/09/03 10:02:26;;;;;;;1.90;0.87;;;25.20;99.90;;;;;;4982536;28;20226;-64
2023/09/03 10:04:53;;;;;;;7.03;1.40;;;25.20;99.90;;;;;;4966615;28;20278;-64
2023/09/03 10:07:19;;;;;;;4.10;1.47;;;25.30;99.90;;;;;;4983698;28;20318;-64
2023/09/03 10:09:45;;;;;;;3.40;1.57;;;25.20;99.90;;;;;;4984298;28;20616;-64
2023/09/03 10:12:12;;;;;;;2.57;1.60;;;25.10;99.90;;;;;;4984460;28;20189;-64
2023/09/03 10:14:38;;;;;;;3.90;1.00;;;25.30;99.90;;;;;;4983643;28;20513;-63
2023/09/03 10:17:06;;;;;;;2.50;1.00;;;24.80;99.90;;;;;;4983732;28;20920;-64
2023/09/03 10:19:58;;;;;;;2.30;0.90;;;24.80;99.90;;;;;;4983954;28;20457;-64
2023/09/03 10:22:24;;;;;;;3.50;1.30;;;25.10;99.90;;;;;;4984377;28;20446;-64
2023/09/03 10:24:55;;;;;;;2.40;1.13;;;25.10;99.60;;;;;;4983806;28;20437;-63
2023/09/03 10:27:26;;;;;;;1.93;0.70;;;25.00;99.90;;;;;;4984296;28;20656;-64
2023/09/03 10:29:55;;;;;;;2.40;1.10;;;25.00;98.50;;;;;;4984516;28;20843;-64
2023/09/03 10:32:21;;;;;;;2.57;1.10;;;25.00;98.90;;;;;;4977182;28;20434;-64
2023/09/03 10:34:47;;;;;;;1.50;0.80;;;25.20;98.20;;;;;;4981026;28;20525;-64
2023/09/03 10:37:13;;;;;;;5.30;0.80;;;25.10;98.80;;;;;;4982801;28;20564;-63
2023/09/03 10:39:40;;;;;;;1.90;1.07;;;25.10;98.00;;;;;;4984215;28;20650;-64
2023/09/03 10:42:16;;;;;;;2.13;0.90;;;25.00;99.50;;;;;;4983452;28;20442;-63
2023/09/03 10:44:42;;;;;;;1.90;0.97;;;25.00;99.30;;;;;;4982293;28;20434;-63
2023/09/03 10:47:10;;;;;;;2.13;1.03;;;25.10;98.00;;;;;;4982697;28;20434;-63
2023/09/03 10:49:40;;;;;;;4.30;1.20;;;24.90;98.00;;;;;;4984093;28;20493;-64
2023/09/03 10:52:30;;;;;;;2.00;0.80;;;25.30;97.10;;;;;;4980858;28;20476;-64
2023/09/03 10:55:15;;;;;;;2.30;1.17;;;25.00;97.00;;;;;;4983639;28;20487;-64
2023/09/03 10:57:42;;;;;;;2.50;1.20;;;24.80;99.20;;;;;;4982690;28;21656;-64
2023/09/03 11:00:09;;;;;;;2.13;0.80;;;25.00;98.40;;;;;;4983612;28;20449;-63
2023/09/03 11:02:36;;;;;;;1.50;0.90;;;25.00;98.50;;;;;;4986518;28;20524;-63
2023/09/03 11:05:11;;;;;;;2.23;1.10;;;24.80;98.60;;;;;;4991958;28;20434;-64
2023/09/03 11:07:37;;;;;;;1.80;0.87;;;25.00;99.70;;;;;;4991732;28;20457;-64
2023/09/03 11:10:20;;;;;;;2.83;1.10;;;25.30;97.50;;;;;;4991223;28;20458;-63
2023/09/03 11:12:47;;;;;;;2.57;1.10;;;25.30;97.80;;;;;;4991411;28;20179;-64
2023/09/03 11:15:15;;;;;;;2.73;1.27;;;25.40;97.90;;;;;;5004128;28;20426;-64
2023/09/03 11:17:48;;;;;;;1.97;0.83;;;25.30;98.40;;;;;;4997298;28;20768;-64
2023/09/03 11:20:26;;;;;;;2.47;1.20;;;25.70;96.80;;;;;;4998624;28;20439;-63
2023/09/03 11:22:52;;;;;;;1.90;1.10;;;25.50;96.80;;;;;;4995448;28;20472;-64
2023/09/03 11:25:29;;;;;;;2.87;1.30;;;25.10;98.10;;;;;;4993144;28;20442;-63
2023/09/03 11:27:55;;;;;;;1.93;0.97;;;25.20;98.20;;;;;;4990523;28;20190;-64
2023/09/03 11:30:20;;;;;;;2.37;1.10;;;25.50;98.30;;;;;;4989464;28;20461;-64
2023/09/03 11:32:46;;;;;;;13.90;1.33;;;25.80;97.80;;;;;;4989910;28;20191;-63
2023/09/03 11:35:11;;;;;;;2.20;1.07;;;25.70;97.30;;;;;;4981411;28;20258;-63
2023/09/03 11:37:38;;;;;;;1.60;0.80;;;25.50;97.20;;;;;;4982557;28;20266;-64
2023/09/03 11:40:04;;;;;;;2.10;1.03;;;25.30;97.10;;;;;;4981148;28;20191;-64
2023/09/03 11:42:29;;;;;;;2.20;1.00;;;25.40;97.20;;;;;;4977719;28;20469;-63
2023/09/03 11:44:55;;;;;;;2.13;0.80;;;25.30;97.20;;;;;;4978038;28;20442;-64
2023/09/03 11:47:21;;;;;;;2.23;1.10;;;25.40;97.70;;;;;;4976852;28;20889;-63
2023/09/03 11:49:47;;;;;;;8.33;1.50;;;25.70;97.20;;;;;;4964032;28;20281;-64
2023/09/03 11:52:14;;;;;;;2.57;1.17;;;25.80;97.60;;;;;;4978217;28;20191;-64
2023/09/03 11:54:41;;;;;;;1.97;1.13;;;26.00;97.20;;;;;;4977509;28;20422;-64
2023/09/03 11:57:17;;;;;;;2.20;0.83;;;26.10;97.30;;;;;;4977593;28;20438;-64
2023/09/03 11:59:43;;;;;;;7.50;1.40;;;25.70;97.00;;;;;;4978368;28;21048;-64
2023/09/03 12:02:10;;;;;;;2.33;1.20;;;25.50;96.30;;;;;;4979132;28;20280;-63
2023/09/03 12:04:35;;;;;;;3.73;1.07;;;25.80;96.10;;;;;;4982196;28;21493;-63
2023/09/03 12:07:01;;;;;;;3.03;1.10;;;25.70;97.00;;;;;;4981602;28;20450;-63
2023/09/03 12:09:27;;;;;;;4.33;1.07;;;25.90;95.80;;;;;;4981546;28;20242;-64
2023/09/03 12:11:52;;;;;;;1.70;0.90;;;26.20;94.90;;;;;;4981874;28;20190;-64
2023/09/03 12:14:31;;;;;;;3.40;1.10;;;26.30;96.10;;;;;;4982208;28;20191;-64
2023/09/03 12:16:57;;;;;;;1.87;0.73;;;26.40;96.30;;;;;;4981223;28;22213;-64
2023/09/03 12:19:23;;;;;;;2.20;1.20;;;26.40;96.30;;;;;;4980106;28;20197;-64
2023/09/03 12:21:52;;;;;;;2.23;1.13;;;26.60;95.10;;;;;;4981446;28;20194;-64
2023/09/03 12:24:26;;;;;;;5.63;1.43;;;26.20;95.20;;;;;;4980899;28;20183;-64
2023/09/03 12:27:03;;;;;;;1.50;0.70;;;25.80;96.10;;;;;;4980371;28;20195;-64
2023/09/03 12:29:36;;;;;;;1.60;0.90;;;25.70;96.00;;;;;;4981898;28;20218;-64
2023/09/03 12:32:08;;;;;;;2.10;0.90;;;25.90;95.90;;;;;;4981105;28;20210;-64
2023/09/03 12:34:36;;;;;;;1.97;0.83;;;25.80;95.70;;;;;;4981088;28;20429;-63
2023/09/03 12:37:02;;;;;;;2.37;0.90;;;25.70;96.60;;;;;;4982113;28;20782;-64
2023/09/03 12:39:40;;;;;;;1.60;0.90;;;25.70;95.90;;;;;;4982124;28;20564;-64
2023/09/03 12:42:07;;;;;;;2.80;1.13;;;25.50;95.80;;;;;;4980895;28;20794;-64
2023/09/03 12:44:34;;;;;;;1.83;1.10;;;25.60;96.50;;;;;;4980999;28;20429;-64
2023/09/03 12:47:01;;;;;;;2.13;1.23;;;25.70;96.50;;;;;;4981011;28;20434;-64